createdAt,value
2023-01-23T00:03:01.850Z,8.37
2023-01-23T00:07:03.636Z,8.80
2023-01-23T00:11:07.426Z,8.97
2023-01-23T00:15:11.387Z,9.23
2023-01-23T00:19:13.201Z,9.60
2023-01-23T00:23:15.084Z,9.67
2023-01-23T00:27:16.927Z,9.33
2023-01-23T00:31:25.268Z,9.83
2023-01-23T00:35:27.132Z,8.93
2023-01-23T00:39:28.993Z,9.73
2023-01-23T00:43:31.128Z,9.53
2023-01-23T00:47:32.920Z,10.47
2023-01-23T00:51:34.957Z,8.90
2023-01-23T00:55:36.798Z,10.17
2023-01-23T00:59:38.646Z,9.10
2023-01-23T01:03:40.561Z,9.20
2023-01-23T01:07:42.325Z,8.73
2023-01-23T01:11:44.243Z,9.07
2023-01-23T01:15:46.200Z,10.07
2023-01-23T01:19:48.321Z,8.73
2023-01-23T01:23:50.093Z,8.83
2023-01-23T01:27:51.857Z,9.20
2023-01-23T01:31:53.670Z,9.23
2023-01-23T01:35:58.137Z,9.50
2023-01-23T01:39:59.955Z,9.03
2023-01-23T01:44:01.881Z,9.23
2023-01-23T01:48:03.784Z,9.57
2023-01-23T01:52:07.406Z,8.47
2023-01-23T01:56:11.188Z,8.40
2023-01-23T02:00:18.930Z,9.50
2023-01-23T02:04:20.867Z,8.73
2023-01-23T02:08:23.675Z,9.70
2023-01-23T02:12:26.959Z,8.43
2023-01-23T02:16:32.807Z,8.67
2023-01-23T02:20:34.611Z,9.00
2023-01-23T02:24:42.667Z,9.10
2023-01-23T02:28:47.036Z,9.10
2023-01-23T02:32:48.984Z,9.67
2023-01-23T02:36:50.775Z,9.93
2023-01-23T02:40:52.693Z,9.73
2023-01-23T02:44:58.074Z,9.67
2023-01-23T02:49:00.055Z,8.70
2023-01-23T02:53:01.926Z,9.07
2023-01-23T02:57:04.387Z,8.87
2023-01-23T03:01:06.379Z,9.00
2023-01-23T03:05:08.335Z,8.67
2023-01-23T03:09:12.627Z,10.10
2023-01-23T03:13:14.336Z,9.20
2023-01-23T03:17:16.139Z,9.20
2023-01-23T03:21:17.919Z,8.93
2023-01-23T03:25:19.900Z,8.77
2023-01-23T03:29:42.962Z,9.40
2023-01-23T03:33:44.932Z,8.67
2023-01-23T03:37:48.107Z,9.47
2023-01-23T03:41:50.078Z,9.20
2023-01-23T03:45:51.960Z,8.10
2023-01-23T03:49:53.845Z,8.97
2023-01-23T03:53:55.676Z,8.93
2023-01-23T03:57:57.502Z,7.90
2023-01-23T04:02:00.773Z,9.27
2023-01-23T04:06:02.681Z,8.37
2023-01-23T04:10:04.915Z,8.90
2023-01-23T04:14:06.795Z,8.63
2023-01-23T04:18:08.522Z,9.07
2023-01-23T04:22:10.471Z,8.43
2023-01-23T04:26:12.897Z,9.57
2023-01-23T04:30:14.772Z,8.63
2023-01-23T04:34:16.595Z,9.63
2023-01-23T04:38:18.568Z,8.63
2023-01-23T04:42:20.407Z,9.20
2023-01-23T04:46:22.630Z,9.07
2023-01-23T04:50:24.409Z,8.73
2023-01-23T04:54:26.245Z,8.67
2023-01-23T04:58:28.115Z,9.43
2023-01-23T05:02:30.182Z,9.30
2023-01-23T05:06:32.254Z,8.87
2023-01-23T05:10:34.200Z,9.60
2023-01-23T05:14:36.028Z,9.17
2023-01-23T05:18:37.815Z,9.37
2023-01-23T05:22:52.420Z,9.97
2023-01-23T05:26:54.487Z,9.90
2023-01-23T05:30:57.264Z,9.63
2023-01-23T05:34:59.303Z,9.50
2023-01-23T05:39:01.295Z,10.03
2023-01-23T05:43:04.582Z,9.97
2023-01-23T05:47:06.445Z,11.70
2023-01-23T05:51:08.409Z,10.17
2023-01-23T05:55:10.495Z,9.57
2023-01-23T05:59:17.912Z,10.53
2023-01-23T06:03:21.027Z,9.40
2023-01-23T06:07:25.307Z,10.20
2023-01-23T06:11:30.322Z,10.37
2023-01-23T06:15:32.343Z,10.33
2023-01-23T06:19:34.281Z,10.20
2023-01-23T06:23:36.269Z,10.47
2023-01-23T06:27:38.135Z,10.57
2023-01-23T06:31:39.999Z,10.77
2023-01-23T06:35:41.790Z,10.17
2023-01-23T06:39:43.546Z,12.40
2023-01-23T06:43:45.410Z,13.27
2023-01-23T06:47:47.197Z,12.30
2023-01-23T06:51:49.050Z,11.93
2023-01-23T06:55:54.009Z,13.00
2023-01-23T06:59:55.734Z,12.13
2023-01-23T07:03:57.486Z,12.93
2023-01-23T07:07:59.273Z,11.33
2023-01-23T07:12:01.224Z,12.20
2023-01-23T07:16:03.680Z,12.30
2023-01-23T07:20:06.384Z,11.67
2023-01-23T07:24:08.177Z,12.47
2023-01-23T07:28:10.084Z,13.03
2023-01-23T07:32:11.993Z,12.77
2023-01-23T07:36:14.784Z,11.77
2023-01-23T07:40:16.703Z,11.03
2023-01-23T07:44:20.867Z,13.37
2023-01-23T07:48:22.726Z,11.73
2023-01-23T07:52:24.524Z,11.97
2023-01-23T07:56:26.329Z,12.43
2023-01-23T08:00:29.888Z,12.33
2023-01-23T08:04:32.013Z,12.67
2023-01-23T08:08:33.822Z,14.67
2023-01-23T08:12:37.007Z,14.80
2023-01-23T08:16:38.876Z,12.87
2023-01-23T08:20:40.711Z,14.27
2023-01-23T08:24:47.449Z,12.87
2023-01-23T08:28:50.556Z,12.90
2023-01-23T08:32:52.375Z,12.30
2023-01-23T08:36:57.467Z,15.33
2023-01-23T08:41:01.083Z,12.10
2023-01-23T08:45:03.012Z,12.73
2023-01-23T08:49:07.270Z,12.83
2023-01-23T08:53:09.105Z,13.70
2023-01-23T08:57:11.043Z,12.77
2023-01-23T09:01:17.454Z,12.67
2023-01-23T09:05:19.316Z,12.60
2023-01-23T09:09:21.116Z,13.40
2023-01-23T09:13:22.942Z,12.97
2023-01-23T09:17:25.015Z,13.03
2023-01-23T09:21:31.845Z,11.47
2023-01-23T09:25:33.662Z,13.67
2023-01-23T09:29:36.214Z,14.13
2023-01-23T09:33:38.151Z,12.23
2023-01-23T09:37:58.884Z,13.50
2023-01-23T09:42:11.071Z,12.40
2023-01-23T09:46:20.983Z,12.63
2023-01-23T09:50:28.594Z,12.60
2023-01-23T09:54:38.027Z,12.83
2023-01-23T09:58:49.037Z,12.80
2023-01-23T10:02:53.400Z,12.40
2023-01-23T10:07:26.265Z,12.87
2023-01-23T10:11:58.858Z,12.80
2023-01-23T10:16:51.382Z,13.80
2023-01-23T10:21:39.415Z,12.67
2023-01-23T10:25:41.336Z,12.47
2023-01-23T10:29:51.900Z,15.63
2023-01-23T10:34:37.822Z,12.53
2023-01-23T10:39:02.324Z,14.13
2023-01-23T10:43:12.377Z,12.27
2023-01-23T10:47:52.027Z,14.67
2023-01-23T10:52:02.501Z,14.17
2023-01-23T10:56:04.674Z,14.83
2023-01-23T11:00:20.529Z,13.97
2023-01-23T11:04:34.001Z,14.07
2023-01-23T11:08:57.451Z,14.93
2023-01-23T11:13:00.908Z,15.20
2023-01-23T11:17:21.236Z,13.87
2023-01-23T11:21:28.097Z,14.13
2023-01-23T11:25:45.529Z,14.87
2023-01-23T11:30:01.081Z,14.90
2023-01-23T11:34:15.588Z,14.30
2023-01-23T11:38:27.161Z,14.10
2023-01-23T11:42:44.646Z,15.77
2023-01-23T11:47:23.549Z,16.20
2023-01-23T11:51:50.631Z,15.53
2023-01-23T11:56:01.630Z,16.20
2023-01-23T12:00:13.504Z,15.17
2023-01-23T12:04:36.536Z,16.33
2023-01-23T12:08:43.374Z,16.10
2023-01-23T12:13:26.549Z,15.37
2023-01-23T12:17:43.973Z,15.77
2023-01-23T12:22:07.494Z,15.70
2023-01-23T12:26:19.683Z,14.60
2023-01-23T12:30:48.715Z,15.57
2023-01-23T12:35:27.601Z,16.60
2023-01-23T12:39:48.047Z,16.43
2023-01-23T12:44:45.850Z,16.40
2023-01-23T12:49:06.032Z,16.50
2023-01-23T12:53:18.229Z,16.07
2023-01-23T13:02:41.029Z,13.43
2023-01-23T13:07:16.928Z,12.97
2023-01-23T13:11:46.448Z,13.57
2023-01-23T13:16:20.735Z,13.67
2023-01-23T13:21:21.112Z,13.30
2023-01-23T13:25:28.585Z,15.00
2023-01-23T13:29:52.777Z,13.17
2023-01-23T13:34:06.747Z,13.63
2023-01-23T13:38:22.030Z,14.47
2023-01-23T13:42:26.815Z,14.80
2023-01-23T14:23:03.482Z,15.50
2023-01-23T14:27:11.566Z,16.87
2023-01-23T14:31:22.822Z,16.27
2023-01-23T14:35:26.690Z,17.43
2023-01-23T14:39:30.270Z,17.03
2023-01-23T14:43:33.284Z,17.53
2023-01-23T14:48:11.422Z,18.30
2023-01-23T14:52:25.920Z,17.23
2023-01-23T14:56:36.897Z,16.67
2023-01-23T15:00:38.678Z,16.47
2023-01-23T15:04:45.653Z,16.57
2023-01-23T15:08:50.697Z,18.30
2023-01-23T15:13:18.031Z,18.47
2023-01-23T15:17:21.170Z,17.70
2023-01-23T15:21:40.643Z,17.77
2023-01-23T15:25:42.862Z,17.87
2023-01-23T15:29:44.909Z,18.50
2023-01-23T15:33:47.705Z,20.73
2023-01-23T15:37:52.125Z,19.67
2023-01-23T15:42:02.534Z,19.17
2023-01-23T15:46:04.554Z,17.03
2023-01-23T15:50:06.857Z,17.93
2023-01-23T15:54:20.231Z,18.93
2023-01-23T15:58:29.839Z,17.93
2023-01-23T16:02:34.529Z,18.73
2023-01-23T16:06:38.069Z,17.27
2023-01-23T16:10:40.458Z,18.57
2023-01-23T16:14:44.736Z,18.97
2023-01-23T16:18:46.481Z,17.53
2023-01-23T16:22:54.720Z,18.90
2023-01-23T16:26:56.700Z,19.33
2023-01-23T16:30:59.208Z,18.43
2023-01-23T16:35:01.218Z,17.90
2023-01-23T16:39:04.040Z,18.47
2023-01-23T16:43:24.177Z,18.97
2023-01-23T16:47:26.954Z,17.57
2023-01-23T16:51:33.489Z,19.17
2023-01-23T17:00:43.704Z,17.27
2023-01-23T17:04:52.804Z,18.10
2023-01-23T17:09:15.723Z,17.90
2023-01-23T17:13:18.467Z,16.63
2023-01-23T17:18:58.973Z,16.47
2023-01-23T17:23:55.643Z,17.90
2023-01-23T17:27:55.236Z,15.50
2023-01-23T17:33:26.563Z,17.30
2023-01-23T17:48:21.017Z,15.37
2023-01-23T17:52:59.003Z,15.60
2023-01-23T18:02:03.108Z,16.57
2023-01-23T18:06:16.775Z,16.53
2023-01-23T18:10:40.289Z,14.90
2023-01-23T18:20:31.269Z,14.00
2023-01-23T18:24:45.557Z,15.47
2023-01-23T18:29:50.938Z,16.27
2023-01-23T18:34:53.405Z,15.73
2023-01-23T18:39:42.124Z,15.43
2023-01-23T18:51:32.904Z,15.33
2023-01-23T19:02:11.800Z,16.53
2023-01-23T19:11:37.300Z,15.47
2023-01-23T19:16:07.057Z,15.90
2023-01-23T19:20:43.010Z,16.33
2023-01-23T19:24:54.617Z,15.43
2023-01-23T19:29:20.893Z,16.87
2023-01-23T19:33:28.589Z,16.60
2023-01-23T19:37:49.310Z,15.87
2023-01-23T19:41:53.484Z,16.80
2023-01-23T19:46:00.492Z,16.00
2023-01-23T19:50:18.033Z,16.97
2023-01-23T19:55:20.553Z,15.73
2023-01-23T19:59:54.613Z,18.57
2023-01-23T20:04:28.029Z,18.13
2023-01-23T20:08:34.159Z,16.07
2023-01-23T20:12:47.487Z,16.37
2023-01-23T20:16:50.815Z,17.80
2023-01-23T20:20:59.158Z,16.83
2023-01-23T20:25:01.261Z,17.77
2023-01-23T20:29:04.102Z,17.67
2023-01-23T20:33:10.836Z,17.00
2023-01-23T20:37:16.904Z,18.63
2023-01-23T20:41:19.745Z,17.40
2023-01-23T20:45:21.906Z,18.37
2023-01-23T20:49:24.147Z,18.53
2023-01-23T20:53:32.068Z,19.43
2023-01-23T20:58:00.003Z,19.10
2023-01-23T21:02:20.442Z,18.00
2023-01-23T21:06:22.919Z,17.13
2023-01-23T21:10:24.732Z,18.47
2023-01-23T21:14:26.703Z,17.33
2023-01-23T21:18:28.689Z,19.17
2023-01-23T21:22:30.395Z,18.73
2023-01-23T21:26:32.188Z,18.20
2023-01-23T21:30:33.992Z,17.43
2023-01-23T21:34:35.777Z,19.73
2023-01-23T21:38:38.024Z,19.57
2023-01-23T21:42:39.750Z,18.73
2023-01-23T21:46:41.706Z,20.23
2023-01-23T21:50:43.426Z,18.97
2023-01-23T21:54:45.168Z,17.40
2023-01-23T21:58:47.349Z,18.33
2023-01-23T22:02:49.189Z,20.20
2023-01-23T22:06:55.676Z,19.10
2023-01-23T22:10:57.498Z,18.43
2023-01-23T22:14:59.367Z,18.67
2023-01-23T22:19:01.145Z,19.57
2023-01-23T22:23:02.887Z,20.37
2023-01-23T22:27:04.768Z,19.37
2023-01-23T22:31:16.818Z,18.43
2023-01-23T22:35:18.727Z,18.93
2023-01-23T22:39:20.576Z,19.40
2023-01-23T22:43:22.368Z,18.53
2023-01-23T22:47:24.268Z,20.53
2023-01-23T22:51:27.113Z,20.80
2023-01-23T22:55:28.892Z,19.43
2023-01-23T22:59:30.711Z,19.60
2023-01-23T23:03:33.556Z,19.93
2023-01-23T23:07:38.868Z,21.00
2023-01-23T23:11:40.900Z,19.90
2023-01-23T23:15:45.086Z,20.10
2023-01-23T23:19:46.810Z,20.57
2023-01-23T23:23:48.729Z,20.70
2023-01-23T23:27:50.542Z,20.33
2023-01-23T23:31:52.486Z,19.67
2023-01-23T23:35:54.341Z,20.53
2023-01-23T23:39:56.100Z,20.90
2023-01-23T23:43:57.887Z,21.03
2023-01-23T23:47:59.787Z,19.13
2023-01-23T23:52:01.670Z,21.03
2023-01-23T23:56:04.322Z,19.70
